createdAt,value
2017-10-17T00:00:12.261Z,52.10
2017-10-17T00:02:39.015Z,51.90
2017-10-17T00:05:05.771Z,51.90
2017-10-17T00:07:33.269Z,51.90
2017-10-17T00:09:59.993Z,51.80
2017-10-17T00:12:26.762Z,51.90
2017-10-17T00:14:53.544Z,51.80
2017-10-17T00:17:20.289Z,51.80
2017-10-17T00:19:47.767Z,51.70
2017-10-17T00:22:14.528Z,51.70
2017-10-17T00:24:41.288Z,51.70
2017-10-17T00:27:08.023Z,51.70
2017-10-17T00:29:34.779Z,51.70
2017-10-17T00:32:02.288Z,51.70
2017-10-17T00:34:29.046Z,51.80
2017-10-17T00:36:55.777Z,51.80
2017-10-17T00:39:22.523Z,51.90
2017-10-17T00:41:49.261Z,51.90
2017-10-17T00:44:16.060Z,51.90
2017-10-17T00:46:43.552Z,52.10
2017-10-17T00:49:10.309Z,52.10
2017-10-17T00:51:37.047Z,52.10
2017-10-17T00:54:03.804Z,52.10
2017-10-17T00:56:30.532Z,52.10
2017-10-17T00:58:57.527Z,52.20
2017-10-17T01:01:24.250Z,52.10
2017-10-17T01:03:51.772Z,52.20
2017-10-17T01:06:18.525Z,52.10
2017-10-17T01:08:45.334Z,52.20
2017-10-17T01:11:12.091Z,52.20
2017-10-17T01:13:38.830Z,52.40
2017-10-17T01:16:05.584Z,52.40
2017-10-17T01:18:32.327Z,52.40
2017-10-17T01:20:59.107Z,52.50
2017-10-17T01:23:25.846Z,52.60
2017-10-17T01:25:52.640Z,52.70
2017-10-17T01:28:19.368Z,52.70
2017-10-17T01:30:46.123Z,52.70
2017-10-17T01:33:13.631Z,52.70
2017-10-17T01:35:40.371Z,52.60
2017-10-17T01:38:07.116Z,52.80
2017-10-17T01:40:33.847Z,52.90
2017-10-17T01:43:00.604Z,52.90
2017-10-17T01:45:27.348Z,52.80
2017-10-17T01:47:54.109Z,52.80
2017-10-17T01:50:20.842Z,52.80
2017-10-17T01:52:47.594Z,52.80
2017-10-17T01:55:14.339Z,52.80
2017-10-17T01:57:41.866Z,52.70
2017-10-17T02:00:08.612Z,52.70
2017-10-17T02:02:35.373Z,52.70
2017-10-17T02:05:02.104Z,52.80
2017-10-17T02:07:28.843Z,53.00
2017-10-17T02:09:55.602Z,52.70
2017-10-17T02:12:23.117Z,52.70
2017-10-17T02:14:49.853Z,52.70
2017-10-17T02:17:16.581Z,52.80
2017-10-17T02:19:43.405Z,52.90
2017-10-17T02:22:10.179Z,52.90
2017-10-17T02:24:36.936Z,52.90
2017-10-17T02:27:03.668Z,52.90
2017-10-17T02:29:31.184Z,53.00
2017-10-17T02:31:57.944Z,53.00
2017-10-17T02:34:24.680Z,53.00
2017-10-17T02:36:51.432Z,52.90
2017-10-17T02:39:18.936Z,53.00
2017-10-17T02:41:45.711Z,53.00
2017-10-17T02:44:12.440Z,52.90
2017-10-17T02:46:39.177Z,53.50
2017-10-17T02:49:05.921Z,52.90
2017-10-17T02:51:32.657Z,52.90
2017-10-17T02:53:59.405Z,52.90
2017-10-17T02:56:26.140Z,52.90
2017-10-17T02:58:52.896Z,52.80
2017-10-17T03:01:19.688Z,52.80
2017-10-17T03:03:46.432Z,52.80
2017-10-17T03:06:13.199Z,52.80
2017-10-17T03:08:39.924Z,52.70
2017-10-17T03:11:06.648Z,52.70
2017-10-17T03:13:33.379Z,52.70
2017-10-17T03:16:00.132Z,52.70
2017-10-17T03:18:26.860Z,52.70
2017-10-17T03:20:53.804Z,52.70
2017-10-17T03:23:20.535Z,52.70
2017-10-17T03:25:48.052Z,52.70
2017-10-17T03:28:14.779Z,52.60
2017-10-17T03:30:41.541Z,52.60
2017-10-17T03:33:08.271Z,52.50
2017-10-17T03:35:36.549Z,52.40
2017-10-17T03:38:03.303Z,52.50
2017-10-17T03:40:30.053Z,52.60
2017-10-17T03:42:57.552Z,53.60
2017-10-17T03:45:24.317Z,53.60
2017-10-17T03:47:52.568Z,57.00
2017-10-17T03:50:19.333Z,57.00
2017-10-17T03:52:46.067Z,57.20
2017-10-17T03:55:12.793Z,57.20
2017-10-17T03:57:39.547Z,56.80
2017-10-17T04:00:06.286Z,56.50
2017-10-17T04:02:33.068Z,56.40
2017-10-17T04:05:00.576Z,55.90
2017-10-17T04:07:27.329Z,55.80
2017-10-17T04:09:54.055Z,55.40
2017-10-17T04:12:20.813Z,55.20
2017-10-17T04:14:48.320Z,53.90
2017-10-17T04:17:15.080Z,53.80
2017-10-17T04:19:41.836Z,53.70
2017-10-17T04:22:08.586Z,53.50
2017-10-17T04:24:35.344Z,53.50
2017-10-17T04:27:02.901Z,53.30
2017-10-17T04:29:30.425Z,53.40
2017-10-17T04:31:57.492Z,53.30
2017-10-17T04:34:25.273Z,53.90
2017-10-17T04:36:52.800Z,54.20
2017-10-17T04:39:19.531Z,54.10
2017-10-17T04:41:46.303Z,54.50
2017-10-17T04:44:13.799Z,54.80
2017-10-17T04:46:40.556Z,54.70
2017-10-17T04:49:07.296Z,54.90
2017-10-17T04:51:34.064Z,54.80
2017-10-17T04:54:00.798Z,54.80
2017-10-17T04:56:29.086Z,54.60
2017-10-17T04:58:56.584Z,54.60
2017-10-17T05:01:23.344Z,54.50
2017-10-17T05:03:50.136Z,54.50
2017-10-17T05:06:16.917Z,54.40
2017-10-17T05:08:43.702Z,54.40
2017-10-17T05:11:11.205Z,54.40
2017-10-17T05:13:37.956Z,54.30
2017-10-17T05:16:04.710Z,54.30
2017-10-17T05:18:31.597Z,54.30
2017-10-17T05:20:58.380Z,54.20
2017-10-17T05:23:25.119Z,54.20
2017-10-17T05:25:51.874Z,54.10
2017-10-17T05:28:18.625Z,54.10
2017-10-17T05:30:46.149Z,55.00
2017-10-17T05:33:12.908Z,54.20
2017-10-17T05:35:40.404Z,53.90
2017-10-17T05:38:07.154Z,53.90
2017-10-17T05:40:34.020Z,53.80
2017-10-17T05:43:00.785Z,53.70
2017-10-17T05:45:27.515Z,53.60
2017-10-17T05:47:54.297Z,53.50
2017-10-17T05:50:21.793Z,53.50
2017-10-17T05:52:48.561Z,53.40
2017-10-17T05:55:15.297Z,53.40
2017-10-17T05:57:42.091Z,53.30
2017-10-17T06:00:08.805Z,53.20
2017-10-17T06:02:36.473Z,53.20
2017-10-17T06:05:04.010Z,53.10
2017-10-17T06:07:30.746Z,53.00
2017-10-17T06:09:57.502Z,53.00
2017-10-17T06:12:25.020Z,52.90
2017-10-17T06:14:51.772Z,52.90
2017-10-17T06:17:18.518Z,52.90
2017-10-17T06:19:45.292Z,52.90
2017-10-17T06:22:12.045Z,52.90
2017-10-17T06:24:38.819Z,52.90
2017-10-17T06:27:05.553Z,52.90
2017-10-17T06:29:32.324Z,52.80
2017-10-17T06:31:59.828Z,52.70
2017-10-17T06:34:26.585Z,52.60
2017-10-17T06:36:53.361Z,52.60
2017-10-17T06:39:20.883Z,52.60
2017-10-17T06:41:47.632Z,52.50
2017-10-17T06:44:14.355Z,52.60
2017-10-17T06:46:41.117Z,52.50
2017-10-17T06:49:07.889Z,52.50
2017-10-17T06:51:35.409Z,52.40
2017-10-17T06:54:02.148Z,52.30
2017-10-17T06:56:28.883Z,52.30
2017-10-17T06:58:55.652Z,52.30
2017-10-17T07:01:23.185Z,52.50
2017-10-17T07:03:49.942Z,52.40
2017-10-17T07:06:16.651Z,52.40
2017-10-17T07:08:43.752Z,52.30
2017-10-17T07:11:10.479Z,52.30
2017-10-17T07:13:38.012Z,52.10
2017-10-17T07:16:04.790Z,52.00
2017-10-17T07:18:32.318Z,52.10
2017-10-17T07:20:59.807Z,52.10
2017-10-17T07:23:26.568Z,52.00
2017-10-17T07:25:53.261Z,52.10
2017-10-17T07:28:20.779Z,52.10
2017-10-17T07:30:47.529Z,51.90
2017-10-17T07:33:14.237Z,52.00
2017-10-17T07:35:41.004Z,51.80
2017-10-17T07:38:07.732Z,51.90
2017-10-17T07:40:34.504Z,51.90
2017-10-17T07:43:01.251Z,51.90
2017-10-17T07:45:28.929Z,51.90
2017-10-17T07:47:55.632Z,51.70
2017-10-17T07:50:22.389Z,52.40
2017-10-17T07:52:49.877Z,51.70
2017-10-17T07:55:16.645Z,51.60
2017-10-17T07:57:43.387Z,51.70
2017-10-17T08:00:10.142Z,51.70
2017-10-17T08:02:36.871Z,51.70
2017-10-17T08:05:03.600Z,51.70
2017-10-17T08:07:30.363Z,51.70
2017-10-17T08:09:57.096Z,51.60
2017-10-17T08:12:23.872Z,51.70
2017-10-17T08:14:50.613Z,51.70
2017-10-17T08:17:17.361Z,51.80
2017-10-17T08:19:44.099Z,51.90
2017-10-17T08:22:11.033Z,51.90
2017-10-17T08:24:38.502Z,51.90
2017-10-17T08:27:05.237Z,51.90
2017-10-17T08:29:31.980Z,52.00
2017-10-17T08:31:58.737Z,52.10
2017-10-17T08:34:25.496Z,52.10
2017-10-17T08:36:52.247Z,52.30
2017-10-17T08:39:18.996Z,52.50
2017-10-17T08:41:46.704Z,52.80
2017-10-17T08:44:13.477Z,52.70
2017-10-17T08:46:40.234Z,52.80
2017-10-17T08:49:06.957Z,52.90
2017-10-17T08:51:35.224Z,53.00
2017-10-17T08:54:01.957Z,53.00
2017-10-17T08:56:28.739Z,53.00
2017-10-17T08:58:56.243Z,52.90
2017-10-17T09:01:23.016Z,52.90
2017-10-17T09:03:49.740Z,52.90
2017-10-17T09:06:16.475Z,52.80
2017-10-17T09:08:43.239Z,52.70
2017-10-17T09:11:09.991Z,52.60
2017-10-17T09:13:37.516Z,52.50
2017-10-17T09:16:04.277Z,52.60
2017-10-17T09:18:31.015Z,52.50
2017-10-17T09:20:57.757Z,52.60
2017-10-17T09:23:25.272Z,52.40
2017-10-17T09:25:52.000Z,52.30
2017-10-17T09:28:18.738Z,52.20
2017-10-17T09:30:45.489Z,52.20
2017-10-17T09:33:12.272Z,52.20
2017-10-17T09:35:39.009Z,52.10
2017-10-17T09:38:05.744Z,52.10
2017-10-17T09:40:32.511Z,52.10
2017-10-17T09:43:00.009Z,52.10
2017-10-17T09:45:26.767Z,52.00
2017-10-17T09:47:53.506Z,52.00
2017-10-17T09:50:20.273Z,52.00
2017-10-17T09:52:47.764Z,51.90
2017-10-17T09:55:14.504Z,51.90
2017-10-17T09:57:41.244Z,51.80
2017-10-17T10:00:07.984Z,51.90
2017-10-17T10:02:34.757Z,51.90
2017-10-17T10:05:02.998Z,51.80
2017-10-17T10:07:29.751Z,51.80
2017-10-17T10:09:56.522Z,51.70
2017-10-17T10:12:23.292Z,51.80
2017-10-17T10:14:50.027Z,51.60
2017-10-17T10:17:16.773Z,51.80
2017-10-17T10:19:43.528Z,51.70
2017-10-17T10:22:10.290Z,51.70
2017-10-17T10:24:37.047Z,51.80
2017-10-17T10:27:03.763Z,51.70
2017-10-17T10:29:30.536Z,51.80
2017-10-17T10:31:57.258Z,51.80
2017-10-17T10:34:24.011Z,51.80
2017-10-17T10:36:50.748Z,51.70
2017-10-17T10:39:17.515Z,51.60
2017-10-17T10:41:45.005Z,51.60
2017-10-17T10:44:11.736Z,51.60
2017-10-17T10:46:38.494Z,51.50
2017-10-17T10:49:05.436Z,51.50
2017-10-17T10:51:32.184Z,51.50
2017-10-17T10:53:58.924Z,51.60
2017-10-17T10:56:25.672Z,51.60
2017-10-17T10:58:52.432Z,51.70
2017-10-17T11:01:19.955Z,51.60
2017-10-17T11:03:46.704Z,51.60
2017-10-17T11:06:13.482Z,51.50
2017-10-17T11:08:40.226Z,51.60
2017-10-17T11:11:06.956Z,51.50
2017-10-17T11:13:34.482Z,51.50
2017-10-17T11:16:01.219Z,51.50
2017-10-17T11:18:27.965Z,51.50
2017-10-17T11:20:55.865Z,51.50
2017-10-17T11:23:23.390Z,51.50
2017-10-17T11:25:50.944Z,51.50
2017-10-17T11:28:17.721Z,51.50
2017-10-17T11:30:45.225Z,51.50
2017-10-17T11:33:11.945Z,51.40
2017-10-17T11:35:38.856Z,51.40
2017-10-17T11:38:05.602Z,51.40
2017-10-17T11:40:33.107Z,51.40
2017-10-17T11:42:59.852Z,51.40
2017-10-17T11:45:26.588Z,51.30
2017-10-17T11:47:53.332Z,51.40
2017-10-17T11:50:20.095Z,51.50
2017-10-17T11:52:47.619Z,51.40
2017-10-17T11:55:14.554Z,51.50
2017-10-17T11:57:41.306Z,51.40
2017-10-17T12:00:09.579Z,51.40
2017-10-17T12:02:36.325Z,51.90
2017-10-17T12:05:03.045Z,51.40
2017-10-17T12:07:29.807Z,51.50
2017-10-17T12:09:56.552Z,51.40
2017-10-17T12:12:24.075Z,51.40
2017-10-17T12:14:50.807Z,51.40
2017-10-17T12:17:17.580Z,51.40
2017-10-17T12:19:44.320Z,51.30
2017-10-17T12:22:11.145Z,51.30
2017-10-17T12:24:37.879Z,51.30
2017-10-17T12:27:04.624Z,51.30
2017-10-17T12:29:31.358Z,51.30
2017-10-17T12:31:58.248Z,51.40
2017-10-17T12:34:25.831Z,51.20
2017-10-17T12:36:52.553Z,51.20
2017-10-17T12:39:19.324Z,51.30
2017-10-17T12:41:46.109Z,51.20
2017-10-17T12:44:12.843Z,51.30
2017-10-17T12:46:39.575Z,51.30
2017-10-17T12:49:07.092Z,51.20
2017-10-17T12:51:33.822Z,51.30
2017-10-17T12:54:00.563Z,51.20
2017-10-17T12:56:27.297Z,51.30
2017-10-17T12:58:54.072Z,51.20
2017-10-17T13:01:20.837Z,51.20
2017-10-17T13:03:47.580Z,51.20
2017-10-17T13:06:15.110Z,51.10
2017-10-17T13:08:41.849Z,51.20
2017-10-17T13:11:08.579Z,51.10
2017-10-17T13:13:35.324Z,51.10
2017-10-17T13:16:02.056Z,51.10
2017-10-17T13:18:28.835Z,51.10
2017-10-17T13:20:56.092Z,51.10
2017-10-17T13:23:22.852Z,51.10
2017-10-17T13:25:49.596Z,51.10
2017-10-17T13:28:16.611Z,51.00
2017-10-17T13:30:44.132Z,51.00
2017-10-17T13:33:12.362Z,51.10
2017-10-17T13:35:39.118Z,51.00
2017-10-17T13:38:05.844Z,51.00
2017-10-17T13:40:32.597Z,51.70
2017-10-17T13:42:59.328Z,50.90
2017-10-17T13:45:26.080Z,50.90
2017-10-17T13:47:52.820Z,51.00
2017-10-17T13:50:19.587Z,51.00
2017-10-17T13:52:47.120Z,51.00
2017-10-17T13:55:13.866Z,51.00
2017-10-17T13:57:40.613Z,51.00
2017-10-17T14:00:07.377Z,51.00
2017-10-17T14:02:34.888Z,51.00
2017-10-17T14:05:01.714Z,50.90
2017-10-17T14:07:29.209Z,50.90
2017-10-17T14:09:55.945Z,50.90
2017-10-17T14:12:22.732Z,50.90
2017-10-17T14:14:49.428Z,50.90
2017-10-17T14:17:17.661Z,50.90
2017-10-17T14:19:44.416Z,50.80
2017-10-17T14:22:11.153Z,50.90
2017-10-17T14:24:37.912Z,50.80
2017-10-17T14:27:04.662Z,50.90
2017-10-17T14:29:31.426Z,50.90
2017-10-17T14:31:58.137Z,50.80
2017-10-17T14:34:26.392Z,50.90
2017-10-17T14:36:53.148Z,50.70
2017-10-17T14:39:21.411Z,50.90
2017-10-17T14:41:48.160Z,50.90
2017-10-17T14:44:14.916Z,50.80
2017-10-17T14:46:41.664Z,50.90
2017-10-17T14:49:08.384Z,50.90
2017-10-17T14:51:35.911Z,50.90
2017-10-17T14:54:02.649Z,51.00
2017-10-17T14:59:05.329Z,51.30
2017-10-17T15:01:32.177Z,51.50
2017-10-17T15:03:58.910Z,51.60
2017-10-17T15:06:25.657Z,51.60
2017-10-17T15:08:52.389Z,51.50
2017-10-17T15:11:19.144Z,51.50
2017-10-17T15:13:45.895Z,51.40
2017-10-17T15:16:12.649Z,51.30
2017-10-17T15:18:39.412Z,51.30
2017-10-17T15:21:06.911Z,51.30
2017-10-17T15:23:33.689Z,51.90
2017-10-17T15:26:00.412Z,51.20
2017-10-17T15:28:27.172Z,51.20
2017-10-17T15:30:54.679Z,51.50
2017-10-17T15:33:21.435Z,51.10
2017-10-17T15:35:48.205Z,51.00
2017-10-17T15:38:14.935Z,50.90
2017-10-17T15:40:41.699Z,50.90
2017-10-17T15:43:09.239Z,50.90
2017-10-17T15:45:35.987Z,50.90
2017-10-17T15:48:03.496Z,50.90
2017-10-17T15:50:30.261Z,50.80
2017-10-17T15:52:57.029Z,50.70
2017-10-17T15:55:24.546Z,50.80
2017-10-17T15:57:51.312Z,50.70
2017-10-17T16:00:18.053Z,50.60
2017-10-17T16:02:44.816Z,50.70
2017-10-17T16:05:11.633Z,50.60
2017-10-17T16:07:38.396Z,50.60
2017-10-17T16:10:05.136Z,50.70
2017-10-17T16:12:31.884Z,50.70
2017-10-17T16:14:58.655Z,50.80
2017-10-17T16:17:25.434Z,50.70
2017-10-17T16:19:52.987Z,50.70
2017-10-17T16:22:19.668Z,50.70
2017-10-17T16:24:46.409Z,50.70
2017-10-17T16:27:13.174Z,50.70
2017-10-17T16:29:39.919Z,50.70
2017-10-17T16:32:06.692Z,50.70
2017-10-17T16:34:33.459Z,50.70
2017-10-17T16:37:00.258Z,50.70
2017-10-17T16:39:27.018Z,50.70
2017-10-17T16:41:55.065Z,50.70
2017-10-17T16:44:21.782Z,50.70
2017-10-17T16:46:48.970Z,50.70
2017-10-17T16:49:15.720Z,50.70
2017-10-17T16:51:43.220Z,50.80
2017-10-17T16:54:09.966Z,50.70
2017-10-17T16:56:36.748Z,50.80
2017-10-17T16:59:04.294Z,50.70
2017-10-17T17:01:31.050Z,50.70
2017-10-17T17:03:58.540Z,50.70
2017-10-17T17:06:25.285Z,50.70
2017-10-17T17:08:52.032Z,50.70
2017-10-17T17:11:18.792Z,50.70
2017-10-17T17:13:45.553Z,50.90
2017-10-17T17:16:13.070Z,50.80
2017-10-17T17:18:39.837Z,50.80
2017-10-17T17:21:06.572Z,50.70
2017-10-17T17:23:33.322Z,50.70
2017-10-17T17:26:00.916Z,51.30
2017-10-17T17:28:28.457Z,50.70
2017-10-17T17:30:55.957Z,50.80
2017-10-17T17:33:22.732Z,50.70
2017-10-17T17:35:49.457Z,50.70
2017-10-17T17:38:17.704Z,50.80
2017-10-17T17:40:44.464Z,50.70
2017-10-17T17:43:11.215Z,50.80
2017-10-17T17:45:37.998Z,51.00
2017-10-17T17:48:04.761Z,51.50
2017-10-17T17:50:31.545Z,51.80
2017-10-17T17:52:59.068Z,51.90
2017-10-17T17:55:25.837Z,51.90
2017-10-17T17:57:53.385Z,51.70
2017-10-17T18:00:21.646Z,51.60
2017-10-17T18:02:48.400Z,51.50
2017-10-17T18:05:15.149Z,51.50
2017-10-17T18:07:43.845Z,51.50
2017-10-17T18:10:10.597Z,51.50
2017-10-17T18:12:37.365Z,51.50
2017-10-17T18:15:04.230Z,51.40
2017-10-17T18:17:31.005Z,51.40
2017-10-17T18:19:58.532Z,51.40
2017-10-17T18:22:25.292Z,51.40
2017-10-17T18:24:52.800Z,51.40
2017-10-17T18:27:19.554Z,51.40
2017-10-17T18:29:46.297Z,51.40
2017-10-17T18:32:13.047Z,51.40
2017-10-17T18:34:41.317Z,51.30
2017-10-17T18:37:08.048Z,51.30
2017-10-17T18:39:34.809Z,51.30
2017-10-17T18:42:03.082Z,51.30
2017-10-17T18:44:29.851Z,51.30
2017-10-17T18:46:57.357Z,51.30
2017-10-17T18:49:24.135Z,51.30
2017-10-17T18:51:51.640Z,51.40
2017-10-17T18:54:18.395Z,51.40
2017-10-17T18:56:45.137Z,51.30
2017-10-17T18:59:11.900Z,51.40
2017-10-17T19:01:39.442Z,51.40
2017-10-17T19:04:07.168Z,51.40
2017-10-17T19:06:33.917Z,51.40
2017-10-17T19:09:00.658Z,51.40
2017-10-17T19:11:27.423Z,51.40
2017-10-17T19:13:54.156Z,51.40
2017-10-17T19:16:20.895Z,51.50
2017-10-17T19:18:47.677Z,51.40
2017-10-17T19:21:15.215Z,51.40
2017-10-17T19:23:42.742Z,51.80
2017-10-17T19:26:09.493Z,51.40
2017-10-17T19:28:36.251Z,51.30
2017-10-17T19:31:03.753Z,51.90
2017-10-17T19:33:30.513Z,51.80
2017-10-17T19:35:57.272Z,51.80
2017-10-17T19:38:24.046Z,51.70
2017-10-17T19:40:50.838Z,51.60
2017-10-17T19:43:17.586Z,51.60
2017-10-17T19:45:44.382Z,52.10
2017-10-17T19:48:11.110Z,52.40
2017-10-17T19:50:37.873Z,52.40
2017-10-17T19:53:04.609Z,52.20
2017-10-17T19:55:31.390Z,52.00
2017-10-17T19:57:58.118Z,52.10
2017-10-17T20:00:25.651Z,51.90
2017-10-17T20:02:52.388Z,51.90
2017-10-17T20:05:19.141Z,51.80
2017-10-17T20:07:45.882Z,51.90
2017-10-17T20:10:12.666Z,51.70
2017-10-17T20:12:40.187Z,51.70
2017-10-17T20:15:06.920Z,51.70
2017-10-17T20:17:33.691Z,51.60
2017-10-17T20:20:01.205Z,51.70
2017-10-17T20:22:27.960Z,51.70
2017-10-17T20:24:54.734Z,51.70
2017-10-17T20:27:22.274Z,51.70
2017-10-17T20:29:50.535Z,51.70
2017-10-17T20:32:17.338Z,51.60
2017-10-17T20:34:44.073Z,51.60
2017-10-17T20:37:10.874Z,51.60
2017-10-17T20:39:38.381Z,51.60
2017-10-17T20:42:05.153Z,51.60
2017-10-17T20:44:31.909Z,51.60
2017-10-17T20:46:59.436Z,51.60
2017-10-17T20:49:26.189Z,51.60
2017-10-17T20:51:52.917Z,51.50
2017-10-17T20:54:19.685Z,51.50
2017-10-17T20:56:47.191Z,51.50
2017-10-17T20:59:13.967Z,51.60
2017-10-17T21:01:40.692Z,51.50
2017-10-17T21:04:07.469Z,51.50
2017-10-17T21:06:34.992Z,51.50
2017-10-17T21:09:01.873Z,51.50
2017-10-17T21:11:29.385Z,51.50
2017-10-17T21:13:56.164Z,51.50
2017-10-17T21:16:23.683Z,51.50
2017-10-17T21:18:52.062Z,51.50
2017-10-17T21:21:18.857Z,51.40
2017-10-17T21:23:45.593Z,51.50
2017-10-17T21:26:12.359Z,51.50
2017-10-17T21:28:39.086Z,51.50
2017-10-17T21:31:05.891Z,51.40
2017-10-17T21:33:33.435Z,51.50
2017-10-17T21:36:00.188Z,51.40
2017-10-17T21:38:27.778Z,51.40
2017-10-17T21:40:54.512Z,51.30
2017-10-17T21:43:21.329Z,51.40
2017-10-17T21:45:48.052Z,51.30
2017-10-17T21:48:14.804Z,51.40
2017-10-17T21:50:42.309Z,51.30
2017-10-17T21:53:09.072Z,51.30
2017-10-17T21:55:35.964Z,51.30
2017-10-17T21:58:03.481Z,51.30
2017-10-17T22:00:30.209Z,51.30
2017-10-17T22:02:56.979Z,51.30
2017-10-17T22:05:24.500Z,51.20
2017-10-17T22:07:51.216Z,51.20
2017-10-17T22:10:17.957Z,51.20
2017-10-17T22:12:44.704Z,51.10
2017-10-17T22:15:11.553Z,51.20
2017-10-17T22:17:38.314Z,51.30
2017-10-17T22:20:05.853Z,51.20
2017-10-17T22:22:32.603Z,51.20
2017-10-17T22:24:59.361Z,51.10
2017-10-17T22:27:26.889Z,51.10
2017-10-17T22:29:53.646Z,51.20
2017-10-17T22:32:20.372Z,51.10
2017-10-17T22:34:47.192Z,51.10
2017-10-17T22:37:13.937Z,51.10
2017-10-17T22:39:40.681Z,51.10
2017-10-17T22:42:07.476Z,51.10
2017-10-17T22:44:34.221Z,51.10
2017-10-17T22:47:00.984Z,51.10
2017-10-17T22:49:27.736Z,51.10
2017-10-17T22:51:54.484Z,51.10
2017-10-17T22:54:21.245Z,51.00
2017-10-17T22:56:48.248Z,51.00
2017-10-17T22:59:15.001Z,51.10
2017-10-17T23:01:41.746Z,51.00
2017-10-17T23:04:08.504Z,51.10
2017-10-17T23:06:35.216Z,51.00
2017-10-17T23:09:01.995Z,51.00
2017-10-17T23:11:29.502Z,51.00
2017-10-17T23:13:56.271Z,50.90
2017-10-17T23:16:23.012Z,50.90
2017-10-17T23:18:49.764Z,51.00
2017-10-17T23:21:17.295Z,51.00
2017-10-17T23:23:44.072Z,51.00
2017-10-17T23:26:11.575Z,51.00
2017-10-17T23:28:38.319Z,51.00
2017-10-17T23:31:05.088Z,50.90
2017-10-17T23:33:31.817Z,50.90
2017-10-17T23:35:58.748Z,51.00
2017-10-17T23:38:25.465Z,51.10
2017-10-17T23:40:52.216Z,50.90
2017-10-17T23:43:18.967Z,51.00
2017-10-17T23:45:45.725Z,51.00
2017-10-17T23:48:12.476Z,50.90
2017-10-17T23:50:39.970Z,51.10
2017-10-17T23:53:06.730Z,51.00
2017-10-17T23:55:33.460Z,50.90
2017-10-17T23:58:00.236Z,51.00
